sensor_id;sensor_type;location;lat;lon;timestamp;P1;durP1;ratioP1;P2;durP2;ratioP2
51525;SDS011;37611;51.794;21.590;2023-07-24T00:02:29;5.70;;;4.30;;
51525;SDS011;37611;51.794;21.590;2023-07-24T00:06:31;6.20;;;4.90;;
51525;SDS011;37611;51.794;21.590;2023-07-24T00:10:33;5.60;;;4.30;;
51525;SDS011;37611;51.794;21.590;2023-07-24T00:14:35;5.90;;;4.60;;
51525;SDS011;37611;51.794;21.590;2023-07-24T00:18:37;6.00;;;4.20;;
51525;SDS011;37611;51.794;21.590;2023-07-24T00:22:39;5.30;;;4.80;;
51525;SDS011;37611;51.794;21.590;2023-07-24T00:26:42;6.80;;;4.40;;
51525;SDS011;37611;51.794;21.590;2023-07-24T00:30:44;7.10;;;5.00;;
51525;SDS011;37611;51.794;21.590;2023-07-24T00:34:46;6.70;;;4.50;;
51525;SDS011;37611;51.794;21.590;2023-07-24T00:38:55;5.10;;;4.30;;
51525;SDS011;37611;51.794;21.590;2023-07-24T00:42:58;6.30;;;4.80;;
51525;SDS011;37611;51.794;21.590;2023-07-24T00:47:00;5.40;;;4.70;;
51525;SDS011;37611;51.794;21.590;2023-07-24T00:51:03;5.30;;;4.50;;
51525;SDS011;37611;51.794;21.590;2023-07-24T00:55:05;6.40;;;4.70;;
51525;SDS011;37611;51.794;21.590;2023-07-24T00:59:08;6.00;;;4.70;;
51525;SDS011;37611;51.794;21.590;2023-07-24T01:03:10;5.30;;;4.10;;
51525;SDS011;37611;51.794;21.590;2023-07-24T01:07:14;6.90;;;4.60;;
51525;SDS011;37611;51.794;21.590;2023-07-24T01:11:19;5.50;;;4.60;;
51525;SDS011;37611;51.794;21.590;2023-07-24T01:15:31;7.20;;;4.70;;
51525;SDS011;37611;51.794;21.590;2023-07-24T01:19:36;5.90;;;4.70;;
51525;SDS011;37611;51.794;21.590;2023-07-24T01:28:12;5.60;;;4.70;;
51525;SDS011;37611;51.794;21.590;2023-07-24T01:32:14;7.20;;;4.90;;
51525;SDS011;37611;51.794;21.590;2023-07-24T01:36:15;6.40;;;4.60;;
51525;SDS011;37611;51.794;21.590;2023-07-24T01:40:20;10.20;;;4.50;;
51525;SDS011;37611;51.794;21.590;2023-07-24T01:44:23;5.70;;;4.80;;
51525;SDS011;37611;51.794;21.590;2023-07-24T01:48:28;5.40;;;4.40;;
51525;SDS011;37611;51.794;21.590;2023-07-24T01:52:30;7.90;;;5.00;;
51525;SDS011;37611;51.794;21.590;2023-07-24T01:56:36;6.50;;;5.00;;
51525;SDS011;37611;51.794;21.590;2023-07-24T02:00:39;7.50;;;4.90;;
51525;SDS011;37611;51.794;21.590;2023-07-24T02:04:41;6.00;;;4.70;;
51525;SDS011;37611;51.794;21.590;2023-07-24T02:08:43;7.00;;;4.60;;
51525;SDS011;37611;51.794;21.590;2023-07-24T02:12:50;6.80;;;4.70;;
51525;SDS011;37611;51.794;21.590;2023-07-24T02:16:52;9.90;;;5.40;;
51525;SDS011;37611;51.794;21.590;2023-07-24T02:21:05;8.70;;;5.40;;
51525;SDS011;37611;51.794;21.590;2023-07-24T02:25:07;6.90;;;5.20;;
51525;SDS011;37611;51.794;21.590;2023-07-24T02:29:09;6.70;;;5.50;;
51525;SDS011;37611;51.794;21.590;2023-07-24T02:33:14;7.60;;;5.50;;
51525;SDS011;37611;51.794;21.590;2023-07-24T02:37:18;6.70;;;4.90;;
51525;SDS011;37611;51.794;21.590;2023-07-24T02:41:24;6.30;;;4.90;;
51525;SDS011;37611;51.794;21.590;2023-07-24T02:45:29;6.30;;;4.60;;
51525;SDS011;37611;51.794;21.590;2023-07-24T02:49:32;6.90;;;4.40;;
51525;SDS011;37611;51.794;21.590;2023-07-24T02:53:37;6.00;;;4.70;;
51525;SDS011;37611;51.794;21.590;2023-07-24T02:57:41;6.70;;;5.40;;
51525;SDS011;37611;51.794;21.590;2023-07-24T03:01:44;6.40;;;4.90;;
51525;SDS011;37611;51.794;21.590;2023-07-24T03:05:57;8.30;;;5.50;;
51525;SDS011;37611;51.794;21.590;2023-07-24T03:10:03;6.70;;;5.50;;
51525;SDS011;37611;51.794;21.590;2023-07-24T03:14:07;8.10;;;5.30;;
51525;SDS011;37611;51.794;21.590;2023-07-24T03:18:12;7.70;;;5.80;;
51525;SDS011;37611;51.794;21.590;2023-07-24T03:22:17;9.80;;;6.80;;
51525;SDS011;37611;51.794;21.590;2023-07-24T03:26:22;7.90;;;6.00;;
51525;SDS011;37611;51.794;21.590;2023-07-24T03:30:27;7.40;;;5.80;;
51525;SDS011;37611;51.794;21.590;2023-07-24T03:34:34;8.60;;;6.10;;
51525;SDS011;37611;51.794;21.590;2023-07-24T03:38:39;6.70;;;5.50;;
51525;SDS011;37611;51.794;21.590;2023-07-24T03:42:45;7.30;;;5.30;;
51525;SDS011;37611;51.794;21.590;2023-07-24T03:46:47;6.50;;;5.00;;
51525;SDS011;37611;51.794;21.590;2023-07-24T03:50:57;8.80;;;5.30;;
51525;SDS011;37611;51.794;21.590;2023-07-24T03:55:01;7.10;;;5.50;;
51525;SDS011;37611;51.794;21.590;2023-07-24T03:59:03;6.70;;;5.20;;
51525;SDS011;37611;51.794;21.590;2023-07-24T04:03:04;7.40;;;5.20;;
51525;SDS011;37611;51.794;21.590;2023-07-24T04:07:06;8.20;;;5.10;;
51525;SDS011;37611;51.794;21.590;2023-07-24T04:11:08;6.40;;;5.00;;
51525;SDS011;37611;51.794;21.590;2023-07-24T04:15:10;6.00;;;5.10;;
51525;SDS011;37611;51.794;21.590;2023-07-24T04:19:12;8.10;;;6.00;;
51525;SDS011;37611;51.794;21.590;2023-07-24T04:23:14;6.50;;;4.90;;
51525;SDS011;37611;51.794;21.590;2023-07-24T04:27:16;7.40;;;4.90;;
51525;SDS011;37611;51.794;21.590;2023-07-24T04:31:18;5.90;;;5.20;;
51525;SDS011;37611;51.794;21.590;2023-07-24T04:35:20;7.60;;;5.20;;
51525;SDS011;37611;51.794;21.590;2023-07-24T04:39:22;7.90;;;5.20;;
51525;SDS011;37611;51.794;21.590;2023-07-24T04:43:24;6.40;;;5.10;;
51525;SDS011;37611;51.794;21.590;2023-07-24T04:47:26;6.60;;;5.30;;
51525;SDS011;37611;51.794;21.590;2023-07-24T04:51:28;6.10;;;5.10;;
51525;SDS011;37611;51.794;21.590;2023-07-24T04:55:29;9.90;;;5.30;;
51525;SDS011;37611;51.794;21.590;2023-07-24T04:59:31;7.00;;;6.20;;
51525;SDS011;37611;51.794;21.590;2023-07-24T05:03:33;6.10;;;4.90;;
51525;SDS011;37611;51.794;21.590;2023-07-24T05:07:35;8.60;;;5.10;;
51525;SDS011;37611;51.794;21.590;2023-07-24T05:11:36;7.30;;;5.40;;
51525;SDS011;37611;51.794;21.590;2023-07-24T05:15:38;6.30;;;4.90;;
51525;SDS011;37611;51.794;21.590;2023-07-24T05:19:40;9.40;;;5.60;;
51525;SDS011;37611;51.794;21.590;2023-07-24T05:23:42;10.80;;;5.90;;
51525;SDS011;37611;51.794;21.590;2023-07-24T05:27:44;8.50;;;5.30;;
51525;SDS011;37611;51.794;21.590;2023-07-24T05:31:45;7.50;;;5.10;;
51525;SDS011;37611;51.794;21.590;2023-07-24T05:35:51;7.90;;;5.10;;
51525;SDS011;37611;51.794;21.590;2023-07-24T05:39:52;5.30;;;4.70;;
51525;SDS011;37611;51.794;21.590;2023-07-24T05:43:54;10.60;;;4.80;;
51525;SDS011;37611;51.794;21.590;2023-07-24T05:47:57;7.10;;;5.30;;
51525;SDS011;37611;51.794;21.590;2023-07-24T05:51:59;5.50;;;4.30;;
51525;SDS011;37611;51.794;21.590;2023-07-24T05:56:01;7.10;;;4.70;;
51525;SDS011;37611;51.794;21.590;2023-07-24T06:00:03;6.20;;;4.80;;
51525;SDS011;37611;51.794;21.590;2023-07-24T06:04:06;7.10;;;3.90;;
51525;SDS011;37611;51.794;21.590;2023-07-24T06:08:08;6.80;;;4.30;;
51525;SDS011;37611;51.794;21.590;2023-07-24T06:12:12;5.60;;;4.00;;
51525;SDS011;37611;51.794;21.590;2023-07-24T06:16:14;4.10;;;3.60;;
51525;SDS011;37611;51.794;21.590;2023-07-24T06:20:16;6.70;;;4.00;;
51525;SDS011;37611;51.794;21.590;2023-07-24T06:24:17;6.20;;;3.70;;
51525;SDS011;37611;51.794;21.590;2023-07-24T06:28:19;5.80;;;3.60;;
51525;SDS011;37611;51.794;21.590;2023-07-24T06:32:21;5.40;;;3.40;;
51525;SDS011;37611;51.794;21.590;2023-07-24T06:36:23;4.10;;;3.40;;
51525;SDS011;37611;51.794;21.590;2023-07-24T06:40:25;5.40;;;3.40;;
51525;SDS011;37611;51.794;21.590;2023-07-24T06:44:26;4.10;;;3.30;;
51525;SDS011;37611;51.794;21.590;2023-07-24T06:48:28;4.30;;;3.10;;
51525;SDS011;37611;51.794;21.590;2023-07-24T06:52:31;4.90;;;3.00;;
51525;SDS011;37611;51.794;21.590;2023-07-24T06:56:33;3.90;;;3.10;;
51525;SDS011;37611;51.794;21.590;2023-07-24T07:00:35;4.10;;;3.20;;
51525;SDS011;37611;51.794;21.590;2023-07-24T07:04:37;4.10;;;3.60;;
51525;SDS011;37611;51.794;21.590;2023-07-24T07:08:38;5.70;;;3.60;;
51525;SDS011;37611;51.794;21.590;2023-07-24T07:12:40;7.20;;;5.60;;
51525;SDS011;37611;51.794;21.590;2023-07-24T07:16:42;7.20;;;5.90;;
51525;SDS011;37611;51.794;21.590;2023-07-24T07:20:50;6.10;;;3.30;;
51525;SDS011;37611;51.794;21.590;2023-07-24T07:24:54;13.20;;;11.60;;
51525;SDS011;37611;51.794;21.590;2023-07-24T07:28:55;5.90;;;4.40;;
51525;SDS011;37611;51.794;21.590;2023-07-24T07:32:57;4.80;;;3.40;;
51525;SDS011;37611;51.794;21.590;2023-07-24T07:36:59;6.20;;;3.80;;
51525;SDS011;37611;51.794;21.590;2023-07-24T07:41:03;3.40;;;3.00;;
51525;SDS011;37611;51.794;21.590;2023-07-24T07:45:06;3.90;;;3.00;;
51525;SDS011;37611;51.794;21.590;2023-07-24T07:49:08;6.10;;;3.30;;
51525;SDS011;37611;51.794;21.590;2023-07-24T07:53:10;4.10;;;2.90;;
51525;SDS011;37611;51.794;21.590;2023-07-24T07:57:11;3.70;;;3.00;;
51525;SDS011;37611;51.794;21.590;2023-07-24T08:01:13;4.00;;;3.20;;
51525;SDS011;37611;51.794;21.590;2023-07-24T08:05:15;8.20;;;5.50;;
51525;SDS011;37611;51.794;21.590;2023-07-24T08:09:17;7.70;;;5.00;;
51525;SDS011;37611;51.794;21.590;2023-07-24T08:13:19;10.50;;;3.80;;
51525;SDS011;37611;51.794;21.590;2023-07-24T08:17:21;11.30;;;8.30;;
51525;SDS011;37611;51.794;21.590;2023-07-24T08:21:23;7.30;;;4.70;;
51525;SDS011;37611;51.794;21.590;2023-07-24T08:25:25;3.70;;;2.90;;
51525;SDS011;37611;51.794;21.590;2023-07-24T08:29:27;5.20;;;3.40;;
51525;SDS011;37611;51.794;21.590;2023-07-24T08:33:29;8.10;;;4.90;;
51525;SDS011;37611;51.794;21.590;2023-07-24T08:37:32;4.40;;;3.20;;
51525;SDS011;37611;51.794;21.590;2023-07-24T08:41:38;6.60;;;3.80;;
51525;SDS011;37611;51.794;21.590;2023-07-24T08:45:41;3.60;;;3.00;;
51525;SDS011;37611;51.794;21.590;2023-07-24T08:49:44;6.70;;;3.80;;
51525;SDS011;37611;51.794;21.590;2023-07-24T08:53:47;3.80;;;3.30;;
51525;SDS011;37611;51.794;21.590;2023-07-24T08:57:50;6.30;;;4.20;;
51525;SDS011;37611;51.794;21.590;2023-07-24T09:01:52;4.20;;;3.10;;
51525;SDS011;37611;51.794;21.590;2023-07-24T09:05:53;5.20;;;2.70;;
51525;SDS011;37611;51.794;21.590;2023-07-24T09:09:55;6.60;;;2.40;;
51525;SDS011;37611;51.794;21.590;2023-07-24T09:13:58;4.20;;;2.50;;
51525;SDS011;37611;51.794;21.590;2023-07-24T09:17:59;6.20;;;2.60;;
51525;SDS011;37611;51.794;21.590;2023-07-24T09:22:11;4.30;;;2.70;;
51525;SDS011;37611;51.794;21.590;2023-07-24T09:26:17;5.10;;;2.90;;
51525;SDS011;37611;51.794;21.590;2023-07-24T09:30:19;3.10;;;2.80;;
51525;SDS011;37611;51.794;21.590;2023-07-24T09:34:24;3.60;;;3.20;;
51525;SDS011;37611;51.794;21.590;2023-07-24T09:38:29;4.20;;;3.40;;
51525;SDS011;37611;51.794;21.590;2023-07-24T09:42:32;4.00;;;3.40;;
51525;SDS011;37611;51.794;21.590;2023-07-24T09:46:35;3.70;;;3.30;;
51525;SDS011;37611;51.794;21.590;2023-07-24T09:50:38;4.60;;;4.20;;
51525;SDS011;37611;51.794;21.590;2023-07-24T09:54:47;6.70;;;3.80;;
51525;SDS011;37611;51.794;21.590;2023-07-24T09:58:57;4.40;;;3.60;;
51525;SDS011;37611;51.794;21.590;2023-07-24T10:03:02;5.40;;;3.60;;
51525;SDS011;37611;51.794;21.590;2023-07-24T10:07:05;4.80;;;3.50;;
51525;SDS011;37611;51.794;21.590;2023-07-24T10:11:08;4.90;;;3.50;;
51525;SDS011;37611;51.794;21.590;2023-07-24T10:15:12;4.40;;;3.90;;
51525;SDS011;37611;51.794;21.590;2023-07-24T10:19:15;4.30;;;3.90;;
51525;SDS011;37611;51.794;21.590;2023-07-24T10:23:17;4.20;;;3.60;;
51525;SDS011;37611;51.794;21.590;2023-07-24T10:27:23;7.70;;;3.50;;
51525;SDS011;37611;51.794;21.590;2023-07-24T10:31:26;6.80;;;3.10;;
51525;SDS011;37611;51.794;21.590;2023-07-24T10:35:36;4.10;;;3.50;;
51525;SDS011;37611;51.794;21.590;2023-07-24T10:39:39;5.90;;;3.30;;
51525;SDS011;37611;51.794;21.590;2023-07-24T10:47:46;4.20;;;3.10;;
51525;SDS011;37611;51.794;21.590;2023-07-24T10:51:54;7.90;;;3.40;;
51525;SDS011;37611;51.794;21.590;2023-07-24T10:56:00;5.40;;;3.40;;
51525;SDS011;37611;51.794;21.590;2023-07-24T11:00:02;5.00;;;3.30;;
51525;SDS011;37611;51.794;21.590;2023-07-24T11:04:04;9.40;;;3.10;;
51525;SDS011;37611;51.794;21.590;2023-07-24T11:08:12;9.70;;;3.80;;
51525;SDS011;37611;51.794;21.590;2023-07-24T11:12:16;4.10;;;3.70;;
51525;SDS011;37611;51.794;21.590;2023-07-24T11:16:18;9.20;;;3.70;;
51525;SDS011;37611;51.794;21.590;2023-07-24T11:20:20;7.60;;;3.70;;
51525;SDS011;37611;51.794;21.590;2023-07-24T11:24:22;4.20;;;3.70;;
51525;SDS011;37611;51.794;21.590;2023-07-24T11:28:23;5.00;;;3.80;;
51525;SDS011;37611;51.794;21.590;2023-07-24T11:32:25;10.10;;;5.30;;
51525;SDS011;37611;51.794;21.590;2023-07-24T11:36:27;8.40;;;4.90;;
51525;SDS011;37611;51.794;21.590;2023-07-24T11:40:36;6.90;;;5.00;;
51525;SDS011;37611;51.794;21.590;2023-07-24T11:44:39;10.00;;;5.30;;
51525;SDS011;37611;51.794;21.590;2023-07-24T11:48:41;13.10;;;5.50;;
51525;SDS011;37611;51.794;21.590;2023-07-24T11:56:46;5.50;;;4.20;;
51525;SDS011;37611;51.794;21.590;2023-07-24T12:00:48;5.80;;;4.10;;
51525;SDS011;37611;51.794;21.590;2023-07-24T12:04:53;8.40;;;3.60;;
51525;SDS011;37611;51.794;21.590;2023-07-24T12:09:04;11.10;;;3.80;;
51525;SDS011;37611;51.794;21.590;2023-07-24T12:13:07;5.90;;;3.50;;
51525;SDS011;37611;51.794;21.590;2023-07-24T12:17:09;8.70;;;3.70;;
51525;SDS011;37611;51.794;21.590;2023-07-24T12:21:14;4.50;;;3.50;;
51525;SDS011;37611;51.794;21.590;2023-07-24T12:25:16;8.80;;;3.70;;
51525;SDS011;37611;51.794;21.590;2023-07-24T12:29:18;4.20;;;3.10;;
51525;SDS011;37611;51.794;21.590;2023-07-24T12:33:20;3.90;;;3.20;;
51525;SDS011;37611;51.794;21.590;2023-07-24T12:37:24;4.20;;;3.10;;
51525;SDS011;37611;51.794;21.590;2023-07-24T12:41:26;3.90;;;3.00;;
51525;SDS011;37611;51.794;21.590;2023-07-24T12:45:28;4.50;;;3.10;;
51525;SDS011;37611;51.794;21.590;2023-07-24T12:49:30;3.90;;;3.50;;
51525;SDS011;37611;51.794;21.590;2023-07-24T12:53:32;3.70;;;3.10;;
51525;SDS011;37611;51.794;21.590;2023-07-24T12:57:34;6.80;;;3.30;;
51525;SDS011;37611;51.794;21.590;2023-07-24T13:01:36;6.90;;;3.60;;
51525;SDS011;37611;51.794;21.590;2023-07-24T13:05:38;7.40;;;3.60;;
51525;SDS011;37611;51.794;21.590;2023-07-24T13:09:40;4.20;;;3.80;;
51525;SDS011;37611;51.794;21.590;2023-07-24T13:13:42;8.20;;;3.60;;
51525;SDS011;37611;51.794;21.590;2023-07-24T13:17:43;8.40;;;4.00;;
51525;SDS011;37611;51.794;21.590;2023-07-24T13:21:45;9.90;;;3.70;;
51525;SDS011;37611;51.794;21.590;2023-07-24T13:25:48;4.70;;;3.80;;
51525;SDS011;37611;51.794;21.590;2023-07-24T13:29:52;4.30;;;3.90;;
51525;SDS011;37611;51.794;21.590;2023-07-24T13:33:54;6.50;;;3.70;;
51525;SDS011;37611;51.794;21.590;2023-07-24T13:37:56;4.70;;;3.70;;
51525;SDS011;37611;51.794;21.590;2023-07-24T13:41:58;7.40;;;3.90;;
51525;SDS011;37611;51.794;21.590;2023-07-24T13:46:00;5.10;;;3.80;;
51525;SDS011;37611;51.794;21.590;2023-07-24T13:50:04;4.40;;;3.80;;
51525;SDS011;37611;51.794;21.590;2023-07-24T13:54:07;7.30;;;4.20;;
51525;SDS011;37611;51.794;21.590;2023-07-24T13:58:09;8.20;;;4.90;;
51525;SDS011;37611;51.794;21.590;2023-07-24T14:02:11;6.50;;;4.50;;
51525;SDS011;37611;51.794;21.590;2023-07-24T14:06:13;6.50;;;4.40;;
51525;SDS011;37611;51.794;21.590;2023-07-24T14:10:15;6.20;;;4.70;;
51525;SDS011;37611;51.794;21.590;2023-07-24T14:14:17;7.20;;;4.70;;
51525;SDS011;37611;51.794;21.590;2023-07-24T14:18:19;5.30;;;4.30;;
51525;SDS011;37611;51.794;21.590;2023-07-24T14:22:21;8.20;;;4.50;;
51525;SDS011;37611;51.794;21.590;2023-07-24T14:26:23;12.70;;;5.70;;
51525;SDS011;37611;51.794;21.590;2023-07-24T14:30:25;10.20;;;5.10;;
51525;SDS011;37611;51.794;21.590;2023-07-24T14:34:27;9.30;;;5.50;;
51525;SDS011;37611;51.794;21.590;2023-07-24T14:38:28;7.60;;;5.50;;
51525;SDS011;37611;51.794;21.590;2023-07-24T14:42:30;6.50;;;5.40;;
51525;SDS011;37611;51.794;21.590;2023-07-24T14:46:32;9.80;;;6.40;;
51525;SDS011;37611;51.794;21.590;2023-07-24T14:50:34;7.80;;;6.10;;
51525;SDS011;37611;51.794;21.590;2023-07-24T14:54:36;7.00;;;6.00;;
51525;SDS011;37611;51.794;21.590;2023-07-24T14:58:38;8.20;;;5.80;;
51525;SDS011;37611;51.794;21.590;2023-07-24T15:02:39;6.70;;;6.00;;
51525;SDS011;37611;51.794;21.590;2023-07-24T15:06:41;7.60;;;6.30;;
51525;SDS011;37611;51.794;21.590;2023-07-24T15:10:43;7.70;;;6.40;;
51525;SDS011;37611;51.794;21.590;2023-07-24T15:14:45;9.70;;;6.30;;
51525;SDS011;37611;51.794;21.590;2023-07-24T15:18:47;8.40;;;6.50;;
51525;SDS011;37611;51.794;21.590;2023-07-24T15:22:49;7.00;;;6.10;;
51525;SDS011;37611;51.794;21.590;2023-07-24T15:26:51;6.70;;;6.00;;
51525;SDS011;37611;51.794;21.590;2023-07-24T15:30:53;9.10;;;6.00;;
51525;SDS011;37611;51.794;21.590;2023-07-24T15:34:55;7.50;;;5.50;;
51525;SDS011;37611;51.794;21.590;2023-07-24T15:38:57;7.90;;;6.20;;
51525;SDS011;37611;51.794;21.590;2023-07-24T15:42:59;8.20;;;6.80;;
51525;SDS011;37611;51.794;21.590;2023-07-24T15:47:01;7.20;;;6.50;;
51525;SDS011;37611;51.794;21.590;2023-07-24T15:51:02;8.20;;;6.50;;
51525;SDS011;37611;51.794;21.590;2023-07-24T15:55:08;9.10;;;7.40;;
51525;SDS011;37611;51.794;21.590;2023-07-24T15:59:10;10.70;;;8.30;;
51525;SDS011;37611;51.794;21.590;2023-07-24T16:03:11;9.10;;;7.30;;
51525;SDS011;37611;51.794;21.590;2023-07-24T16:07:14;8.30;;;7.00;;
51525;SDS011;37611;51.794;21.590;2023-07-24T16:11:16;7.50;;;6.70;;
51525;SDS011;37611;51.794;21.590;2023-07-24T16:15:18;7.90;;;7.10;;
51525;SDS011;37611;51.794;21.590;2023-07-24T16:19:20;8.30;;;7.10;;
51525;SDS011;37611;51.794;21.590;2023-07-24T16:23:22;11.50;;;7.90;;
51525;SDS011;37611;51.794;21.590;2023-07-24T16:27:25;10.00;;;7.50;;
51525;SDS011;37611;51.794;21.590;2023-07-24T16:31:27;10.10;;;7.50;;
51525;SDS011;37611;51.794;21.590;2023-07-24T16:35:32;11.30;;;7.60;;
51525;SDS011;37611;51.794;21.590;2023-07-24T16:39:34;11.00;;;8.10;;
51525;SDS011;37611;51.794;21.590;2023-07-24T16:43:35;10.10;;;9.00;;
51525;SDS011;37611;51.794;21.590;2023-07-24T16:47:37;11.60;;;9.20;;
51525;SDS011;37611;51.794;21.590;2023-07-24T16:51:39;10.30;;;8.80;;
51525;SDS011;37611;51.794;21.590;2023-07-24T16:55:41;10.10;;;8.10;;
51525;SDS011;37611;51.794;21.590;2023-07-24T16:59:43;12.00;;;8.90;;
51525;SDS011;37611;51.794;21.590;2023-07-24T17:03:44;10.20;;;8.70;;
51525;SDS011;37611;51.794;21.590;2023-07-24T17:07:46;10.20;;;8.50;;
51525;SDS011;37611;51.794;21.590;2023-07-24T17:11:48;10.70;;;8.70;;
51525;SDS011;37611;51.794;21.590;2023-07-24T17:15:50;15.10;;;8.60;;
51525;SDS011;37611;51.794;21.590;2023-07-24T17:19:52;11.20;;;8.80;;
51525;SDS011;37611;51.794;21.590;2023-07-24T17:23:54;12.20;;;8.50;;
51525;SDS011;37611;51.794;21.590;2023-07-24T17:27:57;10.10;;;7.80;;
51525;SDS011;37611;51.794;21.590;2023-07-24T17:31:58;8.90;;;7.90;;
51525;SDS011;37611;51.794;21.590;2023-07-24T17:36:01;8.60;;;7.70;;
51525;SDS011;37611;51.794;21.590;2023-07-24T17:40:03;10.30;;;8.70;;
51525;SDS011;37611;51.794;21.590;2023-07-24T17:44:06;11.50;;;8.80;;
51525;SDS011;37611;51.794;21.590;2023-07-24T17:48:08;11.30;;;9.80;;
51525;SDS011;37611;51.794;21.590;2023-07-24T17:52:09;12.50;;;9.60;;
51525;SDS011;37611;51.794;21.590;2023-07-24T17:56:12;12.00;;;9.30;;
51525;SDS011;37611;51.794;21.590;2023-07-24T18:00:13;11.50;;;9.40;;
51525;SDS011;37611;51.794;21.590;2023-07-24T18:04:17;11.30;;;9.70;;
51525;SDS011;37611;51.794;21.590;2023-07-24T18:08:19;18.00;;;10.10;;
51525;SDS011;37611;51.794;21.590;2023-07-24T18:12:21;16.20;;;10.10;;
51525;SDS011;37611;51.794;21.590;2023-07-24T18:16:23;88.10;;;53.90;;
51525;SDS011;37611;51.794;21.590;2023-07-24T18:20:25;95.80;;;62.50;;
51525;SDS011;37611;51.794;21.590;2023-07-24T18:24:27;65.20;;;44.10;;
51525;SDS011;37611;51.794;21.590;2023-07-24T18:28:29;45.30;;;32.80;;
51525;SDS011;37611;51.794;21.590;2023-07-24T18:32:31;39.10;;;26.00;;
51525;SDS011;37611;51.794;21.590;2023-07-24T18:36:33;25.90;;;19.30;;
51525;SDS011;37611;51.794;21.590;2023-07-24T18:40:36;24.70;;;16.70;;
51525;SDS011;37611;51.794;21.590;2023-07-24T18:44:38;22.10;;;14.70;;
51525;SDS011;37611;51.794;21.590;2023-07-24T18:48:40;13.50;;;10.30;;
51525;SDS011;37611;51.794;21.590;2023-07-24T18:52:42;12.10;;;9.10;;
51525;SDS011;37611;51.794;21.590;2023-07-24T18:56:43;10.10;;;8.90;;
51525;SDS011;37611;51.794;21.590;2023-07-24T19:00:45;10.00;;;8.70;;
51525;SDS011;37611;51.794;21.590;2023-07-24T19:04:47;13.00;;;9.00;;
51525;SDS011;37611;51.794;21.590;2023-07-24T19:08:49;11.70;;;9.40;;
51525;SDS011;37611;51.794;21.590;2023-07-24T19:12:51;12.10;;;9.40;;
51525;SDS011;37611;51.794;21.590;2023-07-24T19:16:53;11.70;;;9.30;;
51525;SDS011;37611;51.794;21.590;2023-07-24T19:20:54;13.70;;;9.40;;
51525;SDS011;37611;51.794;21.590;2023-07-24T19:24:56;12.70;;;9.60;;
51525;SDS011;37611;51.794;21.590;2023-07-24T19:28:58;9.80;;;8.80;;
51525;SDS011;37611;51.794;21.590;2023-07-24T19:33:00;11.50;;;8.70;;
51525;SDS011;37611;51.794;21.590;2023-07-24T19:37:02;14.80;;;8.10;;
51525;SDS011;37611;51.794;21.590;2023-07-24T19:41:04;13.30;;;9.40;;
51525;SDS011;37611;51.794;21.590;2023-07-24T19:45:05;11.90;;;9.70;;
51525;SDS011;37611;51.794;21.590;2023-07-24T19:49:07;12.50;;;9.40;;
51525;SDS011;37611;51.794;21.590;2023-07-24T19:53:09;12.40;;;10.20;;
51525;SDS011;37611;51.794;21.590;2023-07-24T19:57:11;11.70;;;9.90;;
51525;SDS011;37611;51.794;21.590;2023-07-24T20:01:12;12.00;;;10.20;;
51525;SDS011;37611;51.794;21.590;2023-07-24T20:05:14;10.60;;;9.20;;
51525;SDS011;37611;51.794;21.590;2023-07-24T20:09:16;11.30;;;9.30;;
51525;SDS011;37611;51.794;21.590;2023-07-24T20:13:18;10.80;;;9.30;;
51525;SDS011;37611;51.794;21.590;2023-07-24T20:17:20;13.50;;;9.40;;
51525;SDS011;37611;51.794;21.590;2023-07-24T20:21:22;14.40;;;9.50;;
51525;SDS011;37611;51.794;21.590;2023-07-24T20:25:23;12.20;;;9.90;;
51525;SDS011;37611;51.794;21.590;2023-07-24T20:29:25;11.90;;;10.50;;
51525;SDS011;37611;51.794;21.590;2023-07-24T20:33:27;10.70;;;8.40;;
51525;SDS011;37611;51.794;21.590;2023-07-24T20:37:29;11.20;;;9.20;;
51525;SDS011;37611;51.794;21.590;2023-07-24T20:41:32;10.80;;;8.40;;
51525;SDS011;37611;51.794;21.590;2023-07-24T20:45:34;12.60;;;10.10;;
51525;SDS011;37611;51.794;21.590;2023-07-24T20:49:37;11.60;;;9.70;;
51525;SDS011;37611;51.794;21.590;2023-07-24T20:53:39;12.10;;;8.70;;
51525;SDS011;37611;51.794;21.590;2023-07-24T20:57:41;12.50;;;9.40;;
51525;SDS011;37611;51.794;21.590;2023-07-24T21:01:43;11.00;;;9.20;;
51525;SDS011;37611;51.794;21.590;2023-07-24T21:05:45;10.60;;;9.30;;
51525;SDS011;37611;51.794;21.590;2023-07-24T21:09:50;18.30;;;9.20;;
51525;SDS011;37611;51.794;21.590;2023-07-24T21:13:52;11.50;;;8.80;;
51525;SDS011;37611;51.794;21.590;2023-07-24T21:17:54;11.20;;;8.90;;
51525;SDS011;37611;51.794;21.590;2023-07-24T21:21:55;10.70;;;8.60;;
51525;SDS011;37611;51.794;21.590;2023-07-24T21:25:57;13.10;;;9.00;;
51525;SDS011;37611;51.794;21.590;2023-07-24T21:29:59;9.30;;;8.20;;
51525;SDS011;37611;51.794;21.590;2023-07-24T21:34:04;10.70;;;8.70;;
51525;SDS011;37611;51.794;21.590;2023-07-24T21:38:07;10.30;;;8.10;;
51525;SDS011;37611;51.794;21.590;2023-07-24T21:42:10;10.70;;;8.40;;
51525;SDS011;37611;51.794;21.590;2023-07-24T21:46:14;10.50;;;8.70;;
51525;SDS011;37611;51.794;21.590;2023-07-24T21:50:16;11.20;;;8.10;;
51525;SDS011;37611;51.794;21.590;2023-07-24T21:54:21;10.00;;;7.70;;
51525;SDS011;37611;51.794;21.590;2023-07-24T21:58:26;11.00;;;8.00;;
51525;SDS011;37611;51.794;21.590;2023-07-24T22:02:30;9.70;;;8.00;;
51525;SDS011;37611;51.794;21.590;2023-07-24T22:06:32;9.10;;;7.90;;
51525;SDS011;37611;51.794;21.590;2023-07-24T22:10:34;9.80;;;7.70;;
51525;SDS011;37611;51.794;21.590;2023-07-24T22:14:36;9.40;;;7.90;;
51525;SDS011;37611;51.794;21.590;2023-07-24T22:18:39;8.70;;;7.70;;
51525;SDS011;37611;51.794;21.590;2023-07-24T22:22:41;10.40;;;8.00;;
51525;SDS011;37611;51.794;21.590;2023-07-24T22:26:43;9.30;;;7.20;;
51525;SDS011;37611;51.794;21.590;2023-07-24T22:30:45;9.20;;;7.60;;
51525;SDS011;37611;51.794;21.590;2023-07-24T22:34:51;9.30;;;8.00;;
51525;SDS011;37611;51.794;21.590;2023-07-24T22:39:10;9.20;;;8.00;;
51525;SDS011;37611;51.794;21.590;2023-07-24T22:43:12;14.90;;;8.30;;
51525;SDS011;37611;51.794;21.590;2023-07-24T22:47:14;10.30;;;8.10;;
51525;SDS011;37611;51.794;21.590;2023-07-24T22:51:17;10.10;;;7.80;;
51525;SDS011;37611;51.794;21.590;2023-07-24T22:55:19;10.70;;;7.60;;
51525;SDS011;37611;51.794;21.590;2023-07-24T22:59:26;12.00;;;8.10;;
51525;SDS011;37611;51.794;21.590;2023-07-24T23:03:29;10.70;;;7.70;;
51525;SDS011;37611;51.794;21.590;2023-07-24T23:07:31;12.70;;;7.70;;
51525;SDS011;37611;51.794;21.590;2023-07-24T23:11:33;17.00;;;7.40;;
51525;SDS011;37611;51.794;21.590;2023-07-24T23:15:35;8.90;;;8.00;;
51525;SDS011;37611;51.794;21.590;2023-07-24T23:19:37;8.40;;;7.20;;
51525;SDS011;37611;51.794;21.590;2023-07-24T23:23:39;9.90;;;8.20;;
51525;SDS011;37611;51.794;21.590;2023-07-24T23:27:41;9.20;;;7.40;;
51525;SDS011;37611;51.794;21.590;2023-07-24T23:31:43;9.10;;;7.30;;
51525;SDS011;37611;51.794;21.590;2023-07-24T23:35:45;9.10;;;7.50;;
51525;SDS011;37611;51.794;21.590;2023-07-24T23:39:47;7.90;;;6.70;;
51525;SDS011;37611;51.794;21.590;2023-07-24T23:43:49;8.80;;;7.30;;
51525;SDS011;37611;51.794;21.590;2023-07-24T23:47:51;9.20;;;7.40;;
51525;SDS011;37611;51.794;21.590;2023-07-24T23:51:52;9.30;;;7.70;;
51525;SDS011;37611;51.794;21.590;2023-07-24T23:55:54;8.60;;;6.70;;
51525;SDS011;37611;51.794;21.590;2023-07-24T23:59:57;9.00;;;7.10;;
